Almond, Wisconsin
Current Conditions -  °F | °C
As of 8:08 AM on Wednesday 22 Oct 2014 (Local Time) from KY50 Reporting Station
Scattered Clouds Scattered Clouds  
Wind Chill: 27°   Ceiling: Unl
Heat Index: 27°   Visibility: 10mi
Dew Point: 25°   Wind: 0mph
Humidity: 93%   Direction: NA
Pressure: 30.37"   Gusts: NA
Location:  44.26°N, 89.41°W
Report Text: KY50 221308Z AUTO 00000KT 10SM SCT001 SCT018 M03/M04 A3037 RMK AO2 TSNO
Loading
Personal Weather Stations






























Interactive Weather Map
Tropical Storm Tracking
New forecast layout! Learn more

10-Day Weather Forecast

Advertisements
Track Severe Weather on mobile